sensor_id;sensor_type;location;lat;lon;timestamp;P1;durP1;ratioP1;P2;durP2;ratioP2
32786;SDS011;19139;49.372;8.580;2024-02-28T00:01:49;24.03;;;17.23;;
32786;SDS011;19139;49.372;8.580;2024-02-28T00:04:17;21.17;;;15.63;;
32786;SDS011;19139;49.372;8.580;2024-02-28T00:06:44;20.27;;;15.63;;
32786;SDS011;19139;49.372;8.580;2024-02-28T00:09:12;19.37;;;14.90;;
32786;SDS011;19139;49.372;8.580;2024-02-28T00:11:43;22.80;;;15.97;;
32786;SDS011;19139;49.372;8.580;2024-02-28T00:14:13;19.90;;;14.83;;
32786;SDS011;19139;49.372;8.580;2024-02-28T00:16:43;24.60;;;16.73;;
32786;SDS011;19139;49.372;8.580;2024-02-28T00:19:11;26.47;;;17.10;;
32786;SDS011;19139;49.372;8.580;2024-02-28T00:21:39;21.70;;;15.00;;
32786;SDS011;19139;49.372;8.580;2024-02-28T00:24:06;22.00;;;15.30;;
32786;SDS011;19139;49.372;8.580;2024-02-28T00:26:33;21.83;;;15.13;;
32786;SDS011;19139;49.372;8.580;2024-02-28T00:29:00;23.47;;;17.20;;
32786;SDS011;19139;49.372;8.580;2024-02-28T00:31:27;22.93;;;14.93;;
32786;SDS011;19139;49.372;8.580;2024-02-28T00:33:53;22.47;;;16.47;;
32786;SDS011;19139;49.372;8.580;2024-02-28T00:36:20;20.97;;;15.90;;
32786;SDS011;19139;49.372;8.580;2024-02-28T00:38:47;21.33;;;16.17;;
32786;SDS011;19139;49.372;8.580;2024-02-28T00:41:14;23.87;;;17.20;;
32786;SDS011;19139;49.372;8.580;2024-02-28T00:43:40;22.00;;;15.90;;
32786;SDS011;19139;49.372;8.580;2024-02-28T00:46:07;24.03;;;16.60;;
32786;SDS011;19139;49.372;8.580;2024-02-28T00:48:38;25.67;;;17.93;;
32786;SDS011;19139;49.372;8.580;2024-02-28T00:51:05;23.80;;;16.37;;
32786;SDS011;19139;49.372;8.580;2024-02-28T00:53:34;21.23;;;15.97;;
32786;SDS011;19139;49.372;8.580;2024-02-28T00:56:00;26.70;;;17.60;;
32786;SDS011;19139;49.372;8.580;2024-02-28T00:58:27;25.27;;;17.27;;
32786;SDS011;19139;49.372;8.580;2024-02-28T01:00:56;23.47;;;17.53;;
32786;SDS011;19139;49.372;8.580;2024-02-28T01:03:23;23.27;;;16.87;;
32786;SDS011;19139;49.372;8.580;2024-02-28T01:05:50;23.50;;;17.73;;
32786;SDS011;19139;49.372;8.580;2024-02-28T01:08:17;25.83;;;17.80;;
32786;SDS011;19139;49.372;8.580;2024-02-28T01:10:44;24.73;;;18.37;;
32786;SDS011;19139;49.372;8.580;2024-02-28T01:13:11;25.27;;;16.90;;
32786;SDS011;19139;49.372;8.580;2024-02-28T01:15:41;25.10;;;18.13;;
32786;SDS011;19139;49.372;8.580;2024-02-28T01:18:08;25.83;;;18.97;;
32786;SDS011;19139;49.372;8.580;2024-02-28T01:20:36;24.50;;;17.50;;
32786;SDS011;19139;49.372;8.580;2024-02-28T01:23:03;22.73;;;17.17;;
32786;SDS011;19139;49.372;8.580;2024-02-28T01:25:30;25.63;;;18.57;;
32786;SDS011;19139;49.372;8.580;2024-02-28T01:27:57;23.33;;;17.37;;
32786;SDS011;19139;49.372;8.580;2024-02-28T01:30:24;29.90;;;18.77;;
32786;SDS011;19139;49.372;8.580;2024-02-28T01:32:51;25.30;;;18.20;;
32786;SDS011;19139;49.372;8.580;2024-02-28T01:35:18;27.97;;;18.43;;
32786;SDS011;19139;49.372;8.580;2024-02-28T01:37:45;27.60;;;18.37;;
32786;SDS011;19139;49.372;8.580;2024-02-28T01:40:12;27.03;;;18.90;;
32786;SDS011;19139;49.372;8.580;2024-02-28T01:42:38;24.10;;;17.93;;
32786;SDS011;19139;49.372;8.580;2024-02-28T01:45:05;24.77;;;17.63;;
32786;SDS011;19139;49.372;8.580;2024-02-28T01:47:35;28.37;;;19.07;;
32786;SDS011;19139;49.372;8.580;2024-02-28T01:50:03;28.93;;;18.53;;
32786;SDS011;19139;49.372;8.580;2024-02-28T01:52:31;26.83;;;18.03;;
32786;SDS011;19139;49.372;8.580;2024-02-28T01:54:58;26.03;;;17.83;;
32786;SDS011;19139;49.372;8.580;2024-02-28T01:57:24;28.70;;;18.50;;
32786;SDS011;19139;49.372;8.580;2024-02-28T01:59:53;25.63;;;19.57;;
32786;SDS011;19139;49.372;8.580;2024-02-28T02:02:22;26.80;;;18.80;;
32786;SDS011;19139;49.372;8.580;2024-02-28T02:04:48;26.33;;;18.37;;
32786;SDS011;19139;49.372;8.580;2024-02-28T02:07:19;28.20;;;19.73;;
32786;SDS011;19139;49.372;8.580;2024-02-28T02:09:46;24.17;;;18.17;;
32786;SDS011;19139;49.372;8.580;2024-02-28T02:12:12;27.60;;;18.87;;
32786;SDS011;19139;49.372;8.580;2024-02-28T02:14:39;28.00;;;18.90;;
32786;SDS011;19139;49.372;8.580;2024-02-28T02:17:06;28.73;;;19.63;;
32786;SDS011;19139;49.372;8.580;2024-02-28T02:19:33;26.60;;;19.63;;
32786;SDS011;19139;49.372;8.580;2024-02-28T02:21:59;28.10;;;19.37;;
32786;SDS011;19139;49.372;8.580;2024-02-28T02:24:29;27.87;;;19.50;;
32786;SDS011;19139;49.372;8.580;2024-02-28T02:26:59;26.50;;;19.73;;
32786;SDS011;19139;49.372;8.580;2024-02-28T02:29:26;29.43;;;19.53;;
32786;SDS011;19139;49.372;8.580;2024-02-28T02:31:54;30.10;;;20.30;;
32786;SDS011;19139;49.372;8.580;2024-02-28T02:34:21;29.43;;;20.27;;
32786;SDS011;19139;49.372;8.580;2024-02-28T02:36:47;33.40;;;21.07;;
32786;SDS011;19139;49.372;8.580;2024-02-28T02:39:14;30.20;;;21.60;;
32786;SDS011;19139;49.372;8.580;2024-02-28T02:41:41;28.80;;;19.77;;
32786;SDS011;19139;49.372;8.580;2024-02-28T02:44:08;28.53;;;20.73;;
32786;SDS011;19139;49.372;8.580;2024-02-28T02:46:35;28.97;;;20.93;;
32786;SDS011;19139;49.372;8.580;2024-02-28T02:49:01;29.10;;;19.00;;
32786;SDS011;19139;49.372;8.580;2024-02-28T02:51:28;33.73;;;20.97;;
32786;SDS011;19139;49.372;8.580;2024-02-28T02:53:55;30.13;;;20.77;;
32786;SDS011;19139;49.372;8.580;2024-02-28T02:56:21;29.07;;;20.20;;
32786;SDS011;19139;49.372;8.580;2024-02-28T02:58:48;30.83;;;20.83;;
32786;SDS011;19139;49.372;8.580;2024-02-28T03:01:15;29.30;;;20.17;;
32786;SDS011;19139;49.372;8.580;2024-02-28T03:03:41;31.30;;;21.67;;
32786;SDS011;19139;49.372;8.580;2024-02-28T03:06:08;29.40;;;20.43;;
32786;SDS011;19139;49.372;8.580;2024-02-28T03:08:36;30.33;;;21.33;;
32786;SDS011;19139;49.372;8.580;2024-02-28T03:11:03;33.73;;;21.37;;
32786;SDS011;19139;49.372;8.580;2024-02-28T03:13:33;32.00;;;21.50;;
32786;SDS011;19139;49.372;8.580;2024-02-28T03:15:59;30.23;;;20.90;;
32786;SDS011;19139;49.372;8.580;2024-02-28T03:18:26;29.37;;;21.17;;
32786;SDS011;19139;49.372;8.580;2024-02-28T03:20:53;29.87;;;21.23;;
32786;SDS011;19139;49.372;8.580;2024-02-28T03:23:20;31.43;;;22.37;;
32786;SDS011;19139;49.372;8.580;2024-02-28T03:25:46;32.77;;;22.00;;
32786;SDS011;19139;49.372;8.580;2024-02-28T03:28:13;35.23;;;22.23;;
32786;SDS011;19139;49.372;8.580;2024-02-28T03:30:40;32.60;;;21.83;;
32786;SDS011;19139;49.372;8.580;2024-02-28T03:33:06;30.83;;;20.90;;
32786;SDS011;19139;49.372;8.580;2024-02-28T03:35:34;32.90;;;21.90;;
32786;SDS011;19139;49.372;8.580;2024-02-28T03:38:00;31.47;;;22.50;;
32786;SDS011;19139;49.372;8.580;2024-02-28T03:40:27;33.70;;;22.13;;
32786;SDS011;19139;49.372;8.580;2024-02-28T03:42:54;31.93;;;22.10;;
32786;SDS011;19139;49.372;8.580;2024-02-28T03:45:21;37.90;;;22.63;;
32786;SDS011;19139;49.372;8.580;2024-02-28T03:47:49;30.63;;;22.10;;
32786;SDS011;19139;49.372;8.580;2024-02-28T03:50:15;37.50;;;22.67;;
32786;SDS011;19139;49.372;8.580;2024-02-28T03:52:42;32.03;;;21.60;;
32786;SDS011;19139;49.372;8.580;2024-02-28T03:55:09;33.17;;;22.83;;
32786;SDS011;19139;49.372;8.580;2024-02-28T03:57:36;32.27;;;21.40;;
32786;SDS011;19139;49.372;8.580;2024-02-28T04:00:02;32.27;;;22.07;;
32786;SDS011;19139;49.372;8.580;2024-02-28T04:02:30;36.70;;;23.50;;
32786;SDS011;19139;49.372;8.580;2024-02-28T04:04:57;34.53;;;22.70;;
32786;SDS011;19139;49.372;8.580;2024-02-28T04:07:24;34.53;;;23.00;;
32786;SDS011;19139;49.372;8.580;2024-02-28T04:09:50;34.43;;;21.67;;
32786;SDS011;19139;49.372;8.580;2024-02-28T04:12:17;34.57;;;21.90;;
32786;SDS011;19139;49.372;8.580;2024-02-28T04:14:44;32.07;;;21.63;;
32786;SDS011;19139;49.372;8.580;2024-02-28T04:17:10;35.60;;;24.27;;
32786;SDS011;19139;49.372;8.580;2024-02-28T04:19:37;34.03;;;22.57;;
32786;SDS011;19139;49.372;8.580;2024-02-28T04:22:05;35.00;;;22.70;;
32786;SDS011;19139;49.372;8.580;2024-02-28T04:24:32;33.60;;;21.30;;
32786;SDS011;19139;49.372;8.580;2024-02-28T04:26:59;34.67;;;23.97;;
32786;SDS011;19139;49.372;8.580;2024-02-28T04:29:25;35.50;;;23.57;;
32786;SDS011;19139;49.372;8.580;2024-02-28T04:31:52;35.90;;;23.03;;
32786;SDS011;19139;49.372;8.580;2024-02-28T04:34:19;37.60;;;24.37;;
32786;SDS011;19139;49.372;8.580;2024-02-28T04:36:45;37.20;;;22.63;;
32786;SDS011;19139;49.372;8.580;2024-02-28T04:39:12;32.67;;;21.97;;
32786;SDS011;19139;49.372;8.580;2024-02-28T04:41:39;32.53;;;21.77;;
32786;SDS011;19139;49.372;8.580;2024-02-28T04:44:05;33.90;;;22.37;;
32786;SDS011;19139;49.372;8.580;2024-02-28T04:46:33;31.77;;;22.00;;
32786;SDS011;19139;49.372;8.580;2024-02-28T04:49:00;37.77;;;23.57;;
32786;SDS011;19139;49.372;8.580;2024-02-28T04:51:27;36.90;;;23.63;;
32786;SDS011;19139;49.372;8.580;2024-02-28T04:53:54;35.83;;;23.73;;
32786;SDS011;19139;49.372;8.580;2024-02-28T04:56:20;33.10;;;22.63;;
32786;SDS011;19139;49.372;8.580;2024-02-28T04:58:47;33.97;;;22.83;;
32786;SDS011;19139;49.372;8.580;2024-02-28T05:01:14;38.83;;;24.63;;
32786;SDS011;19139;49.372;8.580;2024-02-28T05:03:45;34.37;;;22.37;;
32786;SDS011;19139;49.372;8.580;2024-02-28T05:06:12;40.63;;;23.90;;
32786;SDS011;19139;49.372;8.580;2024-02-28T05:08:39;36.27;;;24.23;;
32786;SDS011;19139;49.372;8.580;2024-02-28T05:11:05;36.37;;;23.03;;
32786;SDS011;19139;49.372;8.580;2024-02-28T05:13:32;37.33;;;23.40;;
32786;SDS011;19139;49.372;8.580;2024-02-28T05:15:59;35.57;;;24.30;;
32786;SDS011;19139;49.372;8.580;2024-02-28T05:18:26;36.67;;;23.40;;
32786;SDS011;19139;49.372;8.580;2024-02-28T05:20:53;32.73;;;21.97;;
32786;SDS011;19139;49.372;8.580;2024-02-28T05:23:19;35.40;;;22.77;;
32786;SDS011;19139;49.372;8.580;2024-02-28T05:25:46;35.57;;;22.50;;
32786;SDS011;19139;49.372;8.580;2024-02-28T05:28:13;34.97;;;23.37;;
32786;SDS011;19139;49.372;8.580;2024-02-28T05:30:39;36.67;;;24.37;;
32786;SDS011;19139;49.372;8.580;2024-02-28T05:33:11;35.90;;;23.67;;
32786;SDS011;19139;49.372;8.580;2024-02-28T05:35:37;35.73;;;23.10;;
32786;SDS011;19139;49.372;8.580;2024-02-28T05:38:04;39.27;;;25.23;;
32786;SDS011;19139;49.372;8.580;2024-02-28T05:40:31;46.23;;;30.87;;
32786;SDS011;19139;49.372;8.580;2024-02-28T05:42:57;44.80;;;30.77;;
32786;SDS011;19139;49.372;8.580;2024-02-28T05:45:24;41.87;;;27.03;;
32786;SDS011;19139;49.372;8.580;2024-02-28T05:47:51;35.60;;;25.17;;
32786;SDS011;19139;49.372;8.580;2024-02-28T05:50:18;35.50;;;23.83;;
32786;SDS011;19139;49.372;8.580;2024-02-28T05:52:44;35.83;;;23.97;;
32786;SDS011;19139;49.372;8.580;2024-02-28T05:55:11;35.27;;;22.97;;
32786;SDS011;19139;49.372;8.580;2024-02-28T05:57:38;33.40;;;23.00;;
32786;SDS011;19139;49.372;8.580;2024-02-28T06:00:05;36.40;;;23.87;;
32786;SDS011;19139;49.372;8.580;2024-02-28T06:02:36;36.60;;;23.77;;
32786;SDS011;19139;49.372;8.580;2024-02-28T06:05:03;39.83;;;23.33;;
32786;SDS011;19139;49.372;8.580;2024-02-28T06:07:30;35.50;;;23.50;;
32786;SDS011;19139;49.372;8.580;2024-02-28T06:09:57;33.37;;;21.87;;
32786;SDS011;19139;49.372;8.580;2024-02-28T06:12:24;41.53;;;24.10;;
32786;SDS011;19139;49.372;8.580;2024-02-28T06:14:51;36.57;;;23.67;;
32786;SDS011;19139;49.372;8.580;2024-02-28T06:17:17;38.90;;;24.47;;
32786;SDS011;19139;49.372;8.580;2024-02-28T06:19:44;41.47;;;26.83;;
32786;SDS011;19139;49.372;8.580;2024-02-28T06:22:10;40.37;;;27.23;;
32786;SDS011;19139;49.372;8.580;2024-02-28T06:24:37;43.97;;;27.83;;
32786;SDS011;19139;49.372;8.580;2024-02-28T06:27:04;41.27;;;27.33;;
32786;SDS011;19139;49.372;8.580;2024-02-28T06:29:31;42.43;;;28.53;;
32786;SDS011;19139;49.372;8.580;2024-02-28T06:32:01;46.07;;;28.00;;
32786;SDS011;19139;49.372;8.580;2024-02-28T06:34:28;45.77;;;30.03;;
32786;SDS011;19139;49.372;8.580;2024-02-28T06:36:55;48.27;;;31.40;;
32786;SDS011;19139;49.372;8.580;2024-02-28T06:39:21;43.47;;;28.27;;
32786;SDS011;19139;49.372;8.580;2024-02-28T06:41:48;44.33;;;28.43;;
32786;SDS011;19139;49.372;8.580;2024-02-28T06:44:18;43.83;;;27.63;;
32786;SDS011;19139;49.372;8.580;2024-02-28T06:46:45;44.87;;;29.27;;
32786;SDS011;19139;49.372;8.580;2024-02-28T06:49:11;43.03;;;27.53;;
32786;SDS011;19139;49.372;8.580;2024-02-28T06:51:38;40.97;;;25.53;;
32786;SDS011;19139;49.372;8.580;2024-02-28T06:54:05;41.30;;;24.90;;
32786;SDS011;19139;49.372;8.580;2024-02-28T06:56:31;39.80;;;25.70;;
32786;SDS011;19139;49.372;8.580;2024-02-28T06:58:58;41.47;;;26.00;;
32786;SDS011;19139;49.372;8.580;2024-02-28T07:01:25;39.47;;;26.00;;
32786;SDS011;19139;49.372;8.580;2024-02-28T07:03:51;40.97;;;25.13;;
32786;SDS011;19139;49.372;8.580;2024-02-28T07:06:18;44.60;;;26.87;;
32786;SDS011;19139;49.372;8.580;2024-02-28T07:08:45;45.80;;;27.33;;
32786;SDS011;19139;49.372;8.580;2024-02-28T07:11:13;42.67;;;25.97;;
32786;SDS011;19139;49.372;8.580;2024-02-28T07:13:40;41.07;;;27.10;;
32786;SDS011;19139;49.372;8.580;2024-02-28T07:16:07;38.93;;;25.33;;
32786;SDS011;19139;49.372;8.580;2024-02-28T07:18:34;42.40;;;26.00;;
32786;SDS011;19139;49.372;8.580;2024-02-28T07:21:00;40.50;;;25.77;;
32786;SDS011;19139;49.372;8.580;2024-02-28T07:23:27;41.40;;;25.80;;
32786;SDS011;19139;49.372;8.580;2024-02-28T07:25:54;41.53;;;26.00;;
32786;SDS011;19139;49.372;8.580;2024-02-28T07:28:21;45.13;;;27.43;;
32786;SDS011;19139;49.372;8.580;2024-02-28T07:30:47;45.13;;;27.60;;
32786;SDS011;19139;49.372;8.580;2024-02-28T07:33:15;45.87;;;27.87;;
32786;SDS011;19139;49.372;8.580;2024-02-28T07:35:45;43.73;;;27.50;;
32786;SDS011;19139;49.372;8.580;2024-02-28T07:38:16;43.33;;;27.33;;
32786;SDS011;19139;49.372;8.580;2024-02-28T07:40:47;38.87;;;26.20;;
32786;SDS011;19139;49.372;8.580;2024-02-28T07:43:15;45.00;;;27.03;;
32786;SDS011;19139;49.372;8.580;2024-02-28T07:45:41;40.53;;;26.67;;
32786;SDS011;19139;49.372;8.580;2024-02-28T07:48:08;41.90;;;27.33;;
32786;SDS011;19139;49.372;8.580;2024-02-28T07:50:35;40.03;;;25.60;;
32786;SDS011;19139;49.372;8.580;2024-02-28T07:53:01;38.83;;;25.03;;
32786;SDS011;19139;49.372;8.580;2024-02-28T07:55:28;37.00;;;24.70;;
32786;SDS011;19139;49.372;8.580;2024-02-28T07:57:55;39.47;;;25.73;;
32786;SDS011;19139;49.372;8.580;2024-02-28T08:00:21;39.13;;;24.80;;
32786;SDS011;19139;49.372;8.580;2024-02-28T08:02:49;38.13;;;25.23;;
32786;SDS011;19139;49.372;8.580;2024-02-28T08:05:15;38.47;;;25.20;;
32786;SDS011;19139;49.372;8.580;2024-02-28T08:07:44;38.20;;;25.47;;
32786;SDS011;19139;49.372;8.580;2024-02-28T08:10:10;41.03;;;24.90;;
32786;SDS011;19139;49.372;8.580;2024-02-28T08:12:37;38.77;;;25.50;;
32786;SDS011;19139;49.372;8.580;2024-02-28T08:15:04;40.90;;;25.70;;
32786;SDS011;19139;49.372;8.580;2024-02-28T08:17:31;38.70;;;25.00;;
32786;SDS011;19139;49.372;8.580;2024-02-28T08:19:58;36.10;;;24.33;;
32786;SDS011;19139;49.372;8.580;2024-02-28T08:22:25;42.93;;;25.57;;
32786;SDS011;19139;49.372;8.580;2024-02-28T08:24:52;34.70;;;24.03;;
32786;SDS011;19139;49.372;8.580;2024-02-28T08:27:19;38.60;;;24.67;;
32786;SDS011;19139;49.372;8.580;2024-02-28T08:29:47;37.80;;;25.33;;
32786;SDS011;19139;49.372;8.580;2024-02-28T08:32:13;41.57;;;25.67;;
32786;SDS011;19139;49.372;8.580;2024-02-28T08:34:43;39.77;;;26.20;;
32786;SDS011;19139;49.372;8.580;2024-02-28T08:37:13;40.23;;;25.30;;
32786;SDS011;19139;49.372;8.580;2024-02-28T08:39:40;37.23;;;25.43;;
32786;SDS011;19139;49.372;8.580;2024-02-28T08:42:06;40.97;;;26.60;;
32786;SDS011;19139;49.372;8.580;2024-02-28T08:44:33;38.97;;;26.67;;
32786;SDS011;19139;49.372;8.580;2024-02-28T08:47:00;37.30;;;25.37;;
32786;SDS011;19139;49.372;8.580;2024-02-28T08:49:29;38.17;;;25.33;;
32786;SDS011;19139;49.372;8.580;2024-02-28T08:51:57;40.07;;;26.43;;
32786;SDS011;19139;49.372;8.580;2024-02-28T08:54:23;39.40;;;26.37;;
32786;SDS011;19139;49.372;8.580;2024-02-28T08:56:51;44.03;;;26.47;;
32786;SDS011;19139;49.372;8.580;2024-02-28T08:59:28;40.77;;;25.23;;
32786;SDS011;19139;49.372;8.580;2024-02-28T09:01:55;41.50;;;26.37;;
32786;SDS011;19139;49.372;8.580;2024-02-28T09:04:21;38.67;;;25.10;;
32786;SDS011;19139;49.372;8.580;2024-02-28T09:06:48;41.27;;;26.63;;
32786;SDS011;19139;49.372;8.580;2024-02-28T09:09:15;40.23;;;24.60;;
32786;SDS011;19139;49.372;8.580;2024-02-28T09:11:43;37.37;;;25.00;;
32786;SDS011;19139;49.372;8.580;2024-02-28T09:14:09;34.50;;;24.07;;
32786;SDS011;19139;49.372;8.580;2024-02-28T09:16:36;38.83;;;24.83;;
32786;SDS011;19139;49.372;8.580;2024-02-28T09:19:03;39.63;;;26.30;;
32786;SDS011;19139;49.372;8.580;2024-02-28T09:21:30;37.03;;;25.17;;
32786;SDS011;19139;49.372;8.580;2024-02-28T09:23:57;35.90;;;24.77;;
32786;SDS011;19139;49.372;8.580;2024-02-28T09:26:24;35.00;;;23.20;;
32786;SDS011;19139;49.372;8.580;2024-02-28T09:28:52;41.50;;;25.77;;
32786;SDS011;19139;49.372;8.580;2024-02-28T09:31:18;35.97;;;24.30;;
32786;SDS011;19139;49.372;8.580;2024-02-28T09:33:45;33.67;;;22.90;;
32786;SDS011;19139;49.372;8.580;2024-02-28T09:36:13;33.53;;;22.83;;
32786;SDS011;19139;49.372;8.580;2024-02-28T09:38:40;34.23;;;23.17;;
32786;SDS011;19139;49.372;8.580;2024-02-28T09:41:08;32.20;;;21.73;;
32786;SDS011;19139;49.372;8.580;2024-02-28T09:43:41;35.53;;;24.07;;
32786;SDS011;19139;49.372;8.580;2024-02-28T09:46:08;34.67;;;24.30;;
32786;SDS011;19139;49.372;8.580;2024-02-28T09:48:41;33.27;;;22.83;;
32786;SDS011;19139;49.372;8.580;2024-02-28T09:51:08;32.70;;;23.57;;
32786;SDS011;19139;49.372;8.580;2024-02-28T09:53:35;40.03;;;23.90;;
32786;SDS011;19139;49.372;8.580;2024-02-28T09:56:03;34.17;;;23.17;;
32786;SDS011;19139;49.372;8.580;2024-02-28T09:58:31;31.30;;;21.33;;
32786;SDS011;19139;49.372;8.580;2024-02-28T10:01:01;37.33;;;25.43;;
32786;SDS011;19139;49.372;8.580;2024-02-28T10:03:30;34.30;;;23.47;;
32786;SDS011;19139;49.372;8.580;2024-02-28T10:05:58;36.30;;;23.07;;
32786;SDS011;19139;49.372;8.580;2024-02-28T10:08:30;33.57;;;23.17;;
32786;SDS011;19139;49.372;8.580;2024-02-28T10:10:58;37.93;;;24.27;;
32786;SDS011;19139;49.372;8.580;2024-02-28T10:13:25;31.53;;;22.40;;
32786;SDS011;19139;49.372;8.580;2024-02-28T10:15:52;32.73;;;23.40;;
32786;SDS011;19139;49.372;8.580;2024-02-28T10:18:20;34.43;;;23.40;;
32786;SDS011;19139;49.372;8.580;2024-02-28T10:20:47;35.37;;;22.47;;
32786;SDS011;19139;49.372;8.580;2024-02-28T10:23:14;34.10;;;23.53;;
32786;SDS011;19139;49.372;8.580;2024-02-28T10:25:44;34.03;;;23.53;;
32786;SDS011;19139;49.372;8.580;2024-02-28T10:28:22;34.40;;;22.80;;
32786;SDS011;19139;49.372;8.580;2024-02-28T10:30:49;32.73;;;22.30;;
32786;SDS011;19139;49.372;8.580;2024-02-28T10:33:16;31.80;;;22.17;;
32786;SDS011;19139;49.372;8.580;2024-02-28T10:35:43;33.30;;;24.03;;
32786;SDS011;19139;49.372;8.580;2024-02-28T10:38:11;30.37;;;20.80;;
32786;SDS011;19139;49.372;8.580;2024-02-28T10:40:39;29.50;;;21.40;;
32786;SDS011;19139;49.372;8.580;2024-02-28T10:43:10;28.90;;;20.50;;
32786;SDS011;19139;49.372;8.580;2024-02-28T10:45:37;31.33;;;22.83;;
32786;SDS011;19139;49.372;8.580;2024-02-28T10:48:25;28.10;;;21.20;;
32786;SDS011;19139;49.372;8.580;2024-02-28T10:50:52;32.00;;;22.53;;
32786;SDS011;19139;49.372;8.580;2024-02-28T10:53:25;29.73;;;21.53;;
32786;SDS011;19139;49.372;8.580;2024-02-28T10:56:02;28.23;;;21.03;;
32786;SDS011;19139;49.372;8.580;2024-02-28T10:58:37;26.40;;;20.67;;
32786;SDS011;19139;49.372;8.580;2024-02-28T11:01:18;24.03;;;19.77;;
32786;SDS011;19139;49.372;8.580;2024-02-28T11:03:46;26.17;;;19.60;;
32786;SDS011;19139;49.372;8.580;2024-02-28T11:06:18;26.17;;;19.80;;
32786;SDS011;19139;49.372;8.580;2024-02-28T11:08:48;25.60;;;20.03;;
32786;SDS011;19139;49.372;8.580;2024-02-28T11:11:19;26.17;;;18.87;;
32786;SDS011;19139;49.372;8.580;2024-02-28T11:13:53;23.37;;;19.33;;
32786;SDS011;19139;49.372;8.580;2024-02-28T11:16:31;26.37;;;18.97;;
32786;SDS011;19139;49.372;8.580;2024-02-28T11:18:59;24.50;;;19.57;;
32786;SDS011;19139;49.372;8.580;2024-02-28T11:21:27;22.87;;;18.00;;
32786;SDS011;19139;49.372;8.580;2024-02-28T11:23:58;23.57;;;18.27;;
32786;SDS011;19139;49.372;8.580;2024-02-28T11:26:26;24.13;;;19.50;;
32786;SDS011;19139;49.372;8.580;2024-02-28T11:28:57;27.87;;;19.10;;
32786;SDS011;19139;49.372;8.580;2024-02-28T11:31:23;26.33;;;19.87;;
32786;SDS011;19139;49.372;8.580;2024-02-28T11:33:50;23.73;;;19.30;;
32786;SDS011;19139;49.372;8.580;2024-02-28T11:36:17;26.40;;;20.53;;
32786;SDS011;19139;49.372;8.580;2024-02-28T11:38:44;23.73;;;18.77;;
32786;SDS011;19139;49.372;8.580;2024-02-28T11:41:10;26.67;;;19.70;;
32786;SDS011;19139;49.372;8.580;2024-02-28T11:43:37;26.63;;;19.27;;
32786;SDS011;19139;49.372;8.580;2024-02-28T11:46:17;27.60;;;19.30;;
32786;SDS011;19139;49.372;8.580;2024-02-28T11:48:45;22.50;;;18.90;;
32786;SDS011;19139;49.372;8.580;2024-02-28T11:51:12;25.97;;;18.93;;
32786;SDS011;19139;49.372;8.580;2024-02-28T11:53:38;29.00;;;19.00;;
32786;SDS011;19139;49.372;8.580;2024-02-28T11:56:05;22.30;;;17.77;;
32786;SDS011;19139;49.372;8.580;2024-02-28T11:58:32;23.47;;;16.83;;
32786;SDS011;19139;49.372;8.580;2024-02-28T12:00:59;24.07;;;17.53;;
32786;SDS011;19139;49.372;8.580;2024-02-28T12:03:26;23.67;;;18.80;;
32786;SDS011;19139;49.372;8.580;2024-02-28T12:05:54;23.47;;;17.30;;
32786;SDS011;19139;49.372;8.580;2024-02-28T12:08:21;23.80;;;17.03;;
32786;SDS011;19139;49.372;8.580;2024-02-28T12:10:51;22.20;;;18.47;;
32786;SDS011;19139;49.372;8.580;2024-02-28T12:13:18;23.13;;;16.87;;
32786;SDS011;19139;49.372;8.580;2024-02-28T12:15:45;22.33;;;17.43;;
32786;SDS011;19139;49.372;8.580;2024-02-28T12:18:11;22.60;;;17.67;;
32786;SDS011;19139;49.372;8.580;2024-02-28T12:20:41;22.33;;;17.53;;
32786;SDS011;19139;49.372;8.580;2024-02-28T12:23:07;21.43;;;17.20;;
32786;SDS011;19139;49.372;8.580;2024-02-28T12:25:34;20.40;;;16.07;;
32786;SDS011;19139;49.372;8.580;2024-02-28T12:28:02;20.47;;;17.10;;
32786;SDS011;19139;49.372;8.580;2024-02-28T12:30:38;19.93;;;17.00;;
32786;SDS011;19139;49.372;8.580;2024-02-28T12:33:06;20.00;;;16.10;;
32786;SDS011;19139;49.372;8.580;2024-02-28T12:35:33;21.70;;;16.57;;
32786;SDS011;19139;49.372;8.580;2024-02-28T12:38:00;21.40;;;16.43;;
32786;SDS011;19139;49.372;8.580;2024-02-28T12:40:26;20.60;;;16.43;;
32786;SDS011;19139;49.372;8.580;2024-02-28T12:42:53;20.57;;;16.30;;
32786;SDS011;19139;49.372;8.580;2024-02-28T12:45:19;19.03;;;16.03;;
32786;SDS011;19139;49.372;8.580;2024-02-28T12:47:46;18.53;;;15.90;;
32786;SDS011;19139;49.372;8.580;2024-02-28T12:50:16;19.37;;;15.53;;
32786;SDS011;19139;49.372;8.580;2024-02-28T12:52:43;19.30;;;16.20;;
32786;SDS011;19139;49.372;8.580;2024-02-28T12:55:10;17.67;;;14.93;;
32786;SDS011;19139;49.372;8.580;2024-02-28T12:57:37;19.30;;;15.07;;
32786;SDS011;19139;49.372;8.580;2024-02-28T13:00:04;17.57;;;13.43;;
32786;SDS011;19139;49.372;8.580;2024-02-28T13:02:34;20.17;;;14.40;;
32786;SDS011;19139;49.372;8.580;2024-02-28T13:05:01;19.53;;;15.87;;
32786;SDS011;19139;49.372;8.580;2024-02-28T13:07:27;19.07;;;14.47;;
32786;SDS011;19139;49.372;8.580;2024-02-28T13:09:56;17.67;;;14.27;;
32786;SDS011;19139;49.372;8.580;2024-02-28T13:12:22;19.27;;;15.30;;
32786;SDS011;19139;49.372;8.580;2024-02-28T13:14:49;20.27;;;16.57;;
32786;SDS011;19139;49.372;8.580;2024-02-28T13:17:16;18.33;;;15.53;;
32786;SDS011;19139;49.372;8.580;2024-02-28T13:19:45;22.00;;;16.63;;
32786;SDS011;19139;49.372;8.580;2024-02-28T13:22:12;18.17;;;16.07;;
32786;SDS011;19139;49.372;8.580;2024-02-28T13:24:39;20.53;;;16.17;;
32786;SDS011;19139;49.372;8.580;2024-02-28T13:27:06;18.30;;;16.17;;
32786;SDS011;19139;49.372;8.580;2024-02-28T13:29:33;18.90;;;16.73;;
32786;SDS011;19139;49.372;8.580;2024-02-28T13:32:01;18.17;;;16.00;;
32786;SDS011;19139;49.372;8.580;2024-02-28T13:34:28;19.87;;;16.67;;
32786;SDS011;19139;49.372;8.580;2024-02-28T13:36:55;20.63;;;17.10;;
32786;SDS011;19139;49.372;8.580;2024-02-28T13:39:22;19.70;;;17.60;;
32786;SDS011;19139;49.372;8.580;2024-02-28T13:41:49;19.17;;;16.93;;
32786;SDS011;19139;49.372;8.580;2024-02-28T13:44:17;24.33;;;18.40;;
32786;SDS011;19139;49.372;8.580;2024-02-28T13:46:49;21.40;;;19.20;;
32786;SDS011;19139;49.372;8.580;2024-02-28T13:49:18;21.80;;;18.40;;
32786;SDS011;19139;49.372;8.580;2024-02-28T13:51:45;23.17;;;20.87;;
32786;SDS011;19139;49.372;8.580;2024-02-28T13:54:14;24.77;;;22.20;;
32786;SDS011;19139;49.372;8.580;2024-02-28T13:56:41;25.67;;;22.97;;
32786;SDS011;19139;49.372;8.580;2024-02-28T13:59:08;21.73;;;19.60;;
32786;SDS011;19139;49.372;8.580;2024-02-28T14:01:35;20.67;;;18.50;;
32786;SDS011;19139;49.372;8.580;2024-02-28T14:04:03;19.63;;;17.73;;
32786;SDS011;19139;49.372;8.580;2024-02-28T14:06:29;19.47;;;17.47;;
32786;SDS011;19139;49.372;8.580;2024-02-28T14:08:56;20.50;;;18.33;;
32786;SDS011;19139;49.372;8.580;2024-02-28T14:11:23;22.13;;;19.67;;
32786;SDS011;19139;49.372;8.580;2024-02-28T14:13:50;20.30;;;17.80;;
32786;SDS011;19139;49.372;8.580;2024-02-28T14:16:17;24.80;;;22.30;;
32786;SDS011;19139;49.372;8.580;2024-02-28T14:18:46;22.00;;;19.70;;
32786;SDS011;19139;49.372;8.580;2024-02-28T14:21:12;20.33;;;18.23;;
32786;SDS011;19139;49.372;8.580;2024-02-28T14:23:39;19.13;;;17.13;;